sensor_id;sensor_type;location;lat;lon;timestamp;P1;durP1;ratioP1;P2;durP2;ratioP2
62977;SDS011;49073;42.352;23.808;2022-08-18T00:00:43;6.45;;;4.60;;
62977;SDS011;49073;42.352;23.808;2022-08-18T00:03:44;7.65;;;4.65;;
62977;SDS011;49073;42.352;23.808;2022-08-18T00:06:45;4.22;;;3.80;;
62977;SDS011;49073;42.352;23.808;2022-08-18T00:09:45;7.13;;;4.20;;
62977;SDS011;49073;42.352;23.808;2022-08-18T00:12:46;6.10;;;4.60;;
62977;SDS011;49073;42.352;23.808;2022-08-18T00:15:47;4.72;;;4.28;;
62977;SDS011;49073;42.352;23.808;2022-08-18T00:18:48;7.25;;;4.68;;
62977;SDS011;49073;42.352;23.808;2022-08-18T00:21:49;6.60;;;4.65;;
62977;SDS011;49073;42.352;23.808;2022-08-18T00:24:51;7.20;;;4.55;;
62977;SDS011;49073;42.352;23.808;2022-08-18T00:27:53;6.18;;;4.60;;
62977;SDS011;49073;42.352;23.808;2022-08-18T00:30:54;6.90;;;4.20;;
62977;SDS011;49073;42.352;23.808;2022-08-18T00:33:55;6.28;;;4.03;;
62977;SDS011;49073;42.352;23.808;2022-08-18T00:36:55;10.10;;;4.35;;
62977;SDS011;49073;42.352;23.808;2022-08-18T00:39:56;5.38;;;4.55;;
62977;SDS011;49073;42.352;23.808;2022-08-18T00:42:58;5.47;;;4.10;;
62977;SDS011;49073;42.352;23.808;2022-08-18T00:46:01;5.18;;;4.30;;
62977;SDS011;49073;42.352;23.808;2022-08-18T00:49:01;6.93;;;4.20;;
62977;SDS011;49073;42.352;23.808;2022-08-18T00:52:03;6.78;;;3.67;;
62977;SDS011;49073;42.352;23.808;2022-08-18T00:55:04;9.63;;;4.85;;
62977;SDS011;49073;42.352;23.808;2022-08-18T00:58:07;7.10;;;4.38;;
62977;SDS011;49073;42.352;23.808;2022-08-18T01:01:15;6.63;;;4.38;;
62977;SDS011;49073;42.352;23.808;2022-08-18T01:04:19;5.53;;;4.80;;
62977;SDS011;49073;42.352;23.808;2022-08-18T01:07:37;5.47;;;4.13;;
62977;SDS011;49073;42.352;23.808;2022-08-18T01:10:46;6.80;;;4.10;;
62977;SDS011;49073;42.352;23.808;2022-08-18T01:13:48;4.88;;;4.10;;
62977;SDS011;49073;42.352;23.808;2022-08-18T01:16:49;5.95;;;4.20;;
62977;SDS011;49073;42.352;23.808;2022-08-18T01:20:09;5.38;;;4.18;;
62977;SDS011;49073;42.352;23.808;2022-08-18T01:23:32;6.30;;;4.63;;
62977;SDS011;49073;42.352;23.808;2022-08-18T01:26:36;5.82;;;4.07;;
62977;SDS011;49073;42.352;23.808;2022-08-18T01:29:38;9.77;;;4.93;;
62977;SDS011;49073;42.352;23.808;2022-08-18T01:32:40;5.32;;;4.18;;
62977;SDS011;49073;42.352;23.808;2022-08-18T01:35:42;5.90;;;4.50;;
62977;SDS011;49073;42.352;23.808;2022-08-18T01:38:49;6.10;;;4.15;;
62977;SDS011;49073;42.352;23.808;2022-08-18T01:41:52;6.75;;;4.10;;
62977;SDS011;49073;42.352;23.808;2022-08-18T01:44:52;7.65;;;4.18;;
62977;SDS011;49073;42.352;23.808;2022-08-18T01:47:53;5.63;;;4.18;;
62977;SDS011;49073;42.352;23.808;2022-08-18T01:50:54;5.47;;;4.43;;
62977;SDS011;49073;42.352;23.808;2022-08-18T01:53:55;6.45;;;4.75;;
62977;SDS011;49073;42.352;23.808;2022-08-18T01:56:57;5.10;;;4.47;;
62977;SDS011;49073;42.352;23.808;2022-08-18T01:59:58;5.20;;;4.45;;
62977;SDS011;49073;42.352;23.808;2022-08-18T02:03:00;4.93;;;4.22;;
62977;SDS011;49073;42.352;23.808;2022-08-18T02:06:02;11.40;;;4.93;;
62977;SDS011;49073;42.352;23.808;2022-08-18T02:09:04;6.93;;;4.43;;
62977;SDS011;49073;42.352;23.808;2022-08-18T02:12:05;6.38;;;4.18;;
62977;SDS011;49073;42.352;23.808;2022-08-18T02:15:07;7.10;;;4.60;;
62977;SDS011;49073;42.352;23.808;2022-08-18T02:18:12;6.78;;;4.63;;
62977;SDS011;49073;42.352;23.808;2022-08-18T02:21:15;7.40;;;4.30;;
62977;SDS011;49073;42.352;23.808;2022-08-18T02:24:18;7.20;;;4.45;;
62977;SDS011;49073;42.352;23.808;2022-08-18T02:27:19;5.82;;;4.13;;
62977;SDS011;49073;42.352;23.808;2022-08-18T02:30:20;5.95;;;4.38;;
62977;SDS011;49073;42.352;23.808;2022-08-18T02:33:21;5.95;;;4.43;;
62977;SDS011;49073;42.352;23.808;2022-08-18T02:36:21;5.57;;;4.60;;
62977;SDS011;49073;42.352;23.808;2022-08-18T02:39:22;6.07;;;5.47;;
62977;SDS011;49073;42.352;23.808;2022-08-18T02:42:23;7.38;;;4.90;;
62977;SDS011;49073;42.352;23.808;2022-08-18T02:45:23;7.90;;;4.72;;
62977;SDS011;49073;42.352;23.808;2022-08-18T02:48:24;6.82;;;4.78;;
62977;SDS011;49073;42.352;23.808;2022-08-18T02:51:34;4.93;;;3.85;;
62977;SDS011;49073;42.352;23.808;2022-08-18T02:54:35;6.93;;;4.43;;
62977;SDS011;49073;42.352;23.808;2022-08-18T02:57:39;8.45;;;4.70;;
62977;SDS011;49073;42.352;23.808;2022-08-18T03:00:41;7.10;;;4.55;;
62977;SDS011;49073;42.352;23.808;2022-08-18T03:03:42;9.75;;;4.68;;
62977;SDS011;49073;42.352;23.808;2022-08-18T03:06:42;7.65;;;4.97;;
62977;SDS011;49073;42.352;23.808;2022-08-18T03:09:43;6.68;;;4.95;;
62977;SDS011;49073;42.352;23.808;2022-08-18T03:12:44;5.70;;;4.93;;
62977;SDS011;49073;42.352;23.808;2022-08-18T03:15:45;6.13;;;4.95;;
62977;SDS011;49073;42.352;23.808;2022-08-18T03:18:46;6.43;;;4.40;;
62977;SDS011;49073;42.352;23.808;2022-08-18T03:21:47;6.68;;;5.60;;
62977;SDS011;49073;42.352;23.808;2022-08-18T03:24:47;5.88;;;4.72;;
62977;SDS011;49073;42.352;23.808;2022-08-18T03:27:48;10.32;;;5.22;;
62977;SDS011;49073;42.352;23.808;2022-08-18T03:30:49;8.48;;;5.25;;
62977;SDS011;49073;42.352;23.808;2022-08-18T03:33:50;5.88;;;4.95;;
62977;SDS011;49073;42.352;23.808;2022-08-18T03:36:51;7.50;;;5.05;;
62977;SDS011;49073;42.352;23.808;2022-08-18T03:39:52;5.22;;;4.65;;
62977;SDS011;49073;42.352;23.808;2022-08-18T03:42:53;7.38;;;4.68;;
62977;SDS011;49073;42.352;23.808;2022-08-18T03:45:54;6.63;;;4.80;;
62977;SDS011;49073;42.352;23.808;2022-08-18T03:48:55;6.25;;;4.88;;
62977;SDS011;49073;42.352;23.808;2022-08-18T03:51:57;6.57;;;5.25;;
62977;SDS011;49073;42.352;23.808;2022-08-18T03:54:59;6.70;;;4.80;;
62977;SDS011;49073;42.352;23.808;2022-08-18T03:58:00;5.93;;;4.88;;
62977;SDS011;49073;42.352;23.808;2022-08-18T04:01:03;7.07;;;4.53;;
62977;SDS011;49073;42.352;23.808;2022-08-18T04:04:04;5.78;;;4.70;;
62977;SDS011;49073;42.352;23.808;2022-08-18T04:07:07;7.30;;;4.90;;
62977;SDS011;49073;42.352;23.808;2022-08-18T04:10:10;5.60;;;4.70;;
62977;SDS011;49073;42.352;23.808;2022-08-18T04:13:10;5.60;;;5.00;;
62977;SDS011;49073;42.352;23.808;2022-08-18T04:16:11;7.70;;;4.82;;
62977;SDS011;49073;42.352;23.808;2022-08-18T04:19:12;11.68;;;5.10;;
62977;SDS011;49073;42.352;23.808;2022-08-18T04:22:13;11.45;;;5.20;;
62977;SDS011;49073;42.352;23.808;2022-08-18T04:25:14;7.00;;;5.20;;
62977;SDS011;49073;42.352;23.808;2022-08-18T04:28:14;6.88;;;5.13;;
62977;SDS011;49073;42.352;23.808;2022-08-18T04:31:15;7.13;;;5.28;;
62977;SDS011;49073;42.352;23.808;2022-08-18T04:34:22;8.63;;;5.57;;
62977;SDS011;49073;42.352;23.808;2022-08-18T04:37:23;7.75;;;5.38;;
62977;SDS011;49073;42.352;23.808;2022-08-18T04:40:23;14.35;;;5.25;;
62977;SDS011;49073;42.352;23.808;2022-08-18T04:43:26;7.28;;;5.60;;
62977;SDS011;49073;42.352;23.808;2022-08-18T04:46:27;5.90;;;5.00;;
62977;SDS011;49073;42.352;23.808;2022-08-18T04:49:28;7.95;;;5.35;;
62977;SDS011;49073;42.352;23.808;2022-08-18T04:52:31;6.45;;;4.65;;
62977;SDS011;49073;42.352;23.808;2022-08-18T04:55:50;6.70;;;5.10;;
62977;SDS011;49073;42.352;23.808;2022-08-18T04:58:59;6.85;;;5.22;;
62977;SDS011;49073;42.352;23.808;2022-08-18T05:02:06;9.30;;;5.15;;
62977;SDS011;49073;42.352;23.808;2022-08-18T05:05:07;7.63;;;4.93;;
62977;SDS011;49073;42.352;23.808;2022-08-18T05:08:08;5.80;;;5.22;;
62977;SDS011;49073;42.352;23.808;2022-08-18T07:29:20;3.90;;;3.50;;
62977;SDS011;49073;42.352;23.808;2022-08-18T07:32:21;5.45;;;4.32;;
62977;SDS011;49073;42.352;23.808;2022-08-18T07:35:29;6.90;;;4.18;;
62977;SDS011;49073;42.352;23.808;2022-08-18T07:38:42;5.32;;;3.90;;
62977;SDS011;49073;42.352;23.808;2022-08-18T07:45:08;6.68;;;4.00;;
62977;SDS011;49073;42.352;23.808;2022-08-18T07:48:18;4.88;;;3.88;;
62977;SDS011;49073;42.352;23.808;2022-08-18T08:02:12;13.20;;;3.70;;
62977;SDS011;49073;42.352;23.808;2022-08-18T08:06:04;10.38;;;3.70;;
62977;SDS011;49073;42.352;23.808;2022-08-18T08:08:43;5.68;;;3.55;;
62977;SDS011;49073;42.352;23.808;2022-08-18T08:18:32;4.22;;;3.53;;
62977;SDS011;49073;42.352;23.808;2022-08-18T08:21:47;8.80;;;3.72;;
62977;SDS011;49073;42.352;23.808;2022-08-18T08:25:25;4.10;;;3.70;;
62977;SDS011;49073;42.352;23.808;2022-08-18T08:28:42;5.80;;;3.30;;
62977;SDS011;49073;42.352;23.808;2022-08-18T08:32:10;7.18;;;3.70;;
62977;SDS011;49073;42.352;23.808;2022-08-18T08:35:16;3.75;;;3.28;;
62977;SDS011;49073;42.352;23.808;2022-08-18T08:38:43;4.10;;;3.63;;
62977;SDS011;49073;42.352;23.808;2022-08-18T08:41:48;3.90;;;3.47;;
62977;SDS011;49073;42.352;23.808;2022-08-18T08:44:57;4.75;;;3.50;;
62977;SDS011;49073;42.352;23.808;2022-08-18T08:54:57;5.25;;;3.40;;
62977;SDS011;49073;42.352;23.808;2022-08-18T09:01:14;6.00;;;3.55;;
62977;SDS011;49073;42.352;23.808;2022-08-18T09:20:19;6.00;;;3.42;;
62977;SDS011;49073;42.352;23.808;2022-08-18T09:23:24;4.72;;;3.38;;
62977;SDS011;49073;42.352;23.808;2022-08-18T09:33:02;5.38;;;3.25;;
62977;SDS011;49073;42.352;23.808;2022-08-18T09:36:34;3.72;;;3.17;;
62977;SDS011;49073;42.352;23.808;2022-08-18T09:40:08;5.70;;;3.45;;
62977;SDS011;49073;42.352;23.808;2022-08-18T09:43:36;3.70;;;3.10;;
62977;SDS011;49073;42.352;23.808;2022-08-18T09:47:09;3.53;;;3.22;;
62977;SDS011;49073;42.352;23.808;2022-08-18T09:56:55;5.43;;;3.30;;
62977;SDS011;49073;42.352;23.808;2022-08-18T10:03:09;6.85;;;3.40;;
62977;SDS011;49073;42.352;23.808;2022-08-18T10:06:13;3.88;;;3.47;;
62977;SDS011;49073;42.352;23.808;2022-08-18T10:09:33;5.30;;;3.20;;
62977;SDS011;49073;42.352;23.808;2022-08-18T10:12:50;4.97;;;3.65;;
62977;SDS011;49073;42.352;23.808;2022-08-18T10:25:37;4.05;;;3.10;;
62977;SDS011;49073;42.352;23.808;2022-08-18T10:28:51;5.45;;;3.17;;
62977;SDS011;49073;42.352;23.808;2022-08-18T10:34:56;4.30;;;3.55;;
62977;SDS011;49073;42.352;23.808;2022-08-18T10:45:24;5.95;;;3.50;;
62977;SDS011;49073;42.352;23.808;2022-08-18T10:48:26;5.07;;;3.95;;
62977;SDS011;49073;42.352;23.808;2022-08-18T10:54:44;4.00;;;3.50;;
62977;SDS011;49073;42.352;23.808;2022-08-18T10:57:57;3.90;;;3.28;;
62977;SDS011;49073;42.352;23.808;2022-08-18T11:01:15;7.43;;;3.90;;
62977;SDS011;49073;42.352;23.808;2022-08-18T11:04:35;8.00;;;3.63;;
62977;SDS011;49073;42.352;23.808;2022-08-18T11:07:40;4.90;;;3.88;;
62977;SDS011;49073;42.352;23.808;2022-08-18T11:10:48;5.15;;;3.65;;
62977;SDS011;49073;42.352;23.808;2022-08-18T11:13:56;3.75;;;3.20;;
62977;SDS011;49073;42.352;23.808;2022-08-18T11:17:33;7.63;;;3.95;;
62977;SDS011;49073;42.352;23.808;2022-08-18T11:20:51;15.48;;;4.05;;
62977;SDS011;49073;42.352;23.808;2022-08-18T11:27:28;4.25;;;3.47;;
62977;SDS011;49073;42.352;23.808;2022-08-18T11:30:36;6.57;;;3.50;;
62977;SDS011;49073;42.352;23.808;2022-08-18T11:33:42;4.30;;;3.42;;
62977;SDS011;49073;42.352;23.808;2022-08-18T11:36:43;5.25;;;3.40;;
62977;SDS011;49073;42.352;23.808;2022-08-18T11:39:46;5.05;;;3.33;;
62977;SDS011;49073;42.352;23.808;2022-08-18T11:42:53;7.22;;;3.08;;
62977;SDS011;49073;42.352;23.808;2022-08-18T11:46:12;5.88;;;3.95;;
62977;SDS011;49073;42.352;23.808;2022-08-18T11:49:30;5.43;;;3.50;;
62977;SDS011;49073;42.352;23.808;2022-08-18T11:52:43;3.40;;;3.05;;
62977;SDS011;49073;42.352;23.808;2022-08-18T11:55:49;7.93;;;3.50;;
62977;SDS011;49073;42.352;23.808;2022-08-18T12:02:31;4.03;;;2.97;;
62977;SDS011;49073;42.352;23.808;2022-08-18T12:05:44;4.53;;;3.33;;
62977;SDS011;49073;42.352;23.808;2022-08-18T12:08:50;5.05;;;3.00;;
62977;SDS011;49073;42.352;23.808;2022-08-18T12:18:19;7.18;;;3.10;;
62977;SDS011;49073;42.352;23.808;2022-08-18T12:21:20;5.90;;;3.30;;
62977;SDS011;49073;42.352;23.808;2022-08-18T12:24:24;4.57;;;3.47;;
62977;SDS011;49073;42.352;23.808;2022-08-18T12:27:29;6.03;;;3.40;;
62977;SDS011;49073;42.352;23.808;2022-08-18T12:30:30;3.22;;;2.67;;
62977;SDS011;49073;42.352;23.808;2022-08-18T12:33:31;4.78;;;3.17;;
62977;SDS011;49073;42.352;23.808;2022-08-18T12:36:32;6.35;;;3.10;;
62977;SDS011;49073;42.352;23.808;2022-08-18T12:39:35;3.67;;;3.08;;
62977;SDS011;49073;42.352;23.808;2022-08-18T12:42:37;4.88;;;3.05;;
62977;SDS011;49073;42.352;23.808;2022-08-18T12:45:39;9.57;;;3.35;;
62977;SDS011;49073;42.352;23.808;2022-08-18T12:48:40;6.13;;;3.40;;
62977;SDS011;49073;42.352;23.808;2022-08-18T12:51:41;3.35;;;2.90;;
62977;SDS011;49073;42.352;23.808;2022-08-18T12:54:42;5.25;;;3.70;;
62977;SDS011;49073;42.352;23.808;2022-08-18T12:57:45;3.60;;;3.20;;
62977;SDS011;49073;42.352;23.808;2022-08-18T13:00:46;6.22;;;3.72;;
62977;SDS011;49073;42.352;23.808;2022-08-18T13:03:47;4.28;;;2.90;;
62977;SDS011;49073;42.352;23.808;2022-08-18T13:06:52;5.72;;;2.80;;
62977;SDS011;49073;42.352;23.808;2022-08-18T13:09:54;7.68;;;3.22;;
62977;SDS011;49073;42.352;23.808;2022-08-18T13:12:55;3.85;;;3.42;;
62977;SDS011;49073;42.352;23.808;2022-08-18T13:15:56;3.55;;;3.00;;
62977;SDS011;49073;42.352;23.808;2022-08-18T13:18:56;3.42;;;3.13;;
62977;SDS011;49073;42.352;23.808;2022-08-18T13:21:57;3.55;;;3.17;;
62977;SDS011;49073;42.352;23.808;2022-08-18T13:24:58;5.50;;;2.97;;
62977;SDS011;49073;42.352;23.808;2022-08-18T13:27:59;6.15;;;3.13;;
62977;SDS011;49073;42.352;23.808;2022-08-18T13:31:00;4.68;;;3.45;;
62977;SDS011;49073;42.352;23.808;2022-08-18T13:34:02;4.07;;;3.35;;
62977;SDS011;49073;42.352;23.808;2022-08-18T13:37:04;5.57;;;3.50;;
62977;SDS011;49073;42.352;23.808;2022-08-18T13:40:05;6.20;;;3.50;;
62977;SDS011;49073;42.352;23.808;2022-08-18T13:43:08;8.38;;;3.38;;
62977;SDS011;49073;42.352;23.808;2022-08-18T13:46:11;5.30;;;3.17;;
62977;SDS011;49073;42.352;23.808;2022-08-18T13:49:14;3.53;;;3.22;;
62977;SDS011;49073;42.352;23.808;2022-08-18T13:52:16;7.25;;;3.30;;
62977;SDS011;49073;42.352;23.808;2022-08-18T13:55:18;9.98;;;3.47;;
62977;SDS011;49073;42.352;23.808;2022-08-18T13:58:20;4.75;;;3.30;;
62977;SDS011;49073;42.352;23.808;2022-08-18T14:01:20;3.42;;;3.00;;
62977;SDS011;49073;42.352;23.808;2022-08-18T14:04:21;5.57;;;3.25;;
62977;SDS011;49073;42.352;23.808;2022-08-18T14:07:22;4.15;;;3.35;;
62977;SDS011;49073;42.352;23.808;2022-08-18T14:10:22;4.97;;;3.42;;
62977;SDS011;49073;42.352;23.808;2022-08-18T14:13:25;4.43;;;3.33;;
62977;SDS011;49073;42.352;23.808;2022-08-18T14:16:29;4.63;;;3.60;;
62977;SDS011;49073;42.352;23.808;2022-08-18T14:19:32;4.93;;;3.40;;
62977;SDS011;49073;42.352;23.808;2022-08-18T14:22:52;5.55;;;3.10;;
62977;SDS011;49073;42.352;23.808;2022-08-18T14:26:14;6.25;;;3.22;;
62977;SDS011;49073;42.352;23.808;2022-08-18T14:29:32;5.78;;;3.05;;
62977;SDS011;49073;42.352;23.808;2022-08-18T14:32:33;3.97;;;3.00;;
62977;SDS011;49073;42.352;23.808;2022-08-18T14:35:35;3.67;;;2.70;;
62977;SDS011;49073;42.352;23.808;2022-08-18T14:38:36;4.28;;;2.75;;
62977;SDS011;49073;42.352;23.808;2022-08-18T14:41:38;3.70;;;3.03;;
62977;SDS011;49073;42.352;23.808;2022-08-18T14:44:39;3.67;;;2.72;;
62977;SDS011;49073;42.352;23.808;2022-08-18T14:47:40;11.85;;;2.97;;
62977;SDS011;49073;42.352;23.808;2022-08-18T14:50:41;3.72;;;2.78;;
62977;SDS011;49073;42.352;23.808;2022-08-18T14:53:42;3.58;;;2.90;;
62977;SDS011;49073;42.352;23.808;2022-08-18T14:56:43;3.45;;;2.75;;
62977;SDS011;49073;42.352;23.808;2022-08-18T14:59:44;3.15;;;2.70;;
62977;SDS011;49073;42.352;23.808;2022-08-18T15:02:45;4.68;;;3.40;;
62977;SDS011;49073;42.352;23.808;2022-08-18T15:05:48;4.32;;;2.70;;
62977;SDS011;49073;42.352;23.808;2022-08-18T15:08:49;3.42;;;2.90;;
62977;SDS011;49073;42.352;23.808;2022-08-18T15:11:49;5.22;;;3.50;;
62977;SDS011;49073;42.352;23.808;2022-08-18T15:14:50;7.03;;;3.42;;
62977;SDS011;49073;42.352;23.808;2022-08-18T15:17:51;5.63;;;3.67;;
62977;SDS011;49073;42.352;23.808;2022-08-18T15:20:52;6.18;;;3.05;;
62977;SDS011;49073;42.352;23.808;2022-08-18T15:24:11;5.05;;;2.80;;
62977;SDS011;49073;42.352;23.808;2022-08-18T15:27:35;4.53;;;3.10;;
62977;SDS011;49073;42.352;23.808;2022-08-18T15:30:39;4.65;;;3.00;;
62977;SDS011;49073;42.352;23.808;2022-08-18T15:33:42;5.93;;;2.90;;
62977;SDS011;49073;42.352;23.808;2022-08-18T15:36:43;7.32;;;3.45;;
62977;SDS011;49073;42.352;23.808;2022-08-18T15:39:43;3.80;;;2.60;;
62977;SDS011;49073;42.352;23.808;2022-08-18T15:42:48;6.70;;;4.15;;
62977;SDS011;49073;42.352;23.808;2022-08-18T15:45:50;3.78;;;3.10;;
62977;SDS011;49073;42.352;23.808;2022-08-18T15:48:53;8.18;;;3.45;;
62977;SDS011;49073;42.352;23.808;2022-08-18T15:51:54;4.22;;;3.17;;
62977;SDS011;49073;42.352;23.808;2022-08-18T15:54:59;4.28;;;3.10;;
62977;SDS011;49073;42.352;23.808;2022-08-18T15:58:00;5.75;;;3.22;;
62977;SDS011;49073;42.352;23.808;2022-08-18T16:01:01;3.38;;;2.83;;
62977;SDS011;49073;42.352;23.808;2022-08-18T16:04:09;3.63;;;3.00;;
62977;SDS011;49073;42.352;23.808;2022-08-18T16:07:09;5.30;;;3.40;;
62977;SDS011;49073;42.352;23.808;2022-08-18T16:10:10;3.40;;;3.10;;
62977;SDS011;49073;42.352;23.808;2022-08-18T16:13:11;5.20;;;3.05;;
62977;SDS011;49073;42.352;23.808;2022-08-18T16:16:20;5.10;;;2.92;;
62977;SDS011;49073;42.352;23.808;2022-08-18T16:19:22;3.85;;;3.30;;
62977;SDS011;49073;42.352;23.808;2022-08-18T16:22:23;7.97;;;3.22;;
62977;SDS011;49073;42.352;23.808;2022-08-18T16:25:23;3.92;;;2.90;;
62977;SDS011;49073;42.352;23.808;2022-08-18T16:28:24;3.15;;;2.83;;
62977;SDS011;49073;42.352;23.808;2022-08-18T16:31:25;4.95;;;3.08;;
62977;SDS011;49073;42.352;23.808;2022-08-18T16:34:27;3.35;;;2.80;;
62977;SDS011;49073;42.352;23.808;2022-08-18T16:37:27;6.13;;;2.92;;
62977;SDS011;49073;42.352;23.808;2022-08-18T16:40:28;6.10;;;3.22;;
62977;SDS011;49073;42.352;23.808;2022-08-18T16:43:29;4.75;;;2.78;;
62977;SDS011;49073;42.352;23.808;2022-08-18T16:46:30;3.85;;;3.17;;
62977;SDS011;49073;42.352;23.808;2022-08-18T16:49:31;5.35;;;3.75;;
62977;SDS011;49073;42.352;23.808;2022-08-18T16:52:33;4.75;;;3.50;;
62977;SDS011;49073;42.352;23.808;2022-08-18T16:55:34;5.22;;;3.03;;
62977;SDS011;49073;42.352;23.808;2022-08-18T16:58:36;4.55;;;3.30;;
62977;SDS011;49073;42.352;23.808;2022-08-18T17:01:55;3.50;;;3.20;;
62977;SDS011;49073;42.352;23.808;2022-08-18T17:05:14;3.78;;;3.03;;
62977;SDS011;49073;42.352;23.808;2022-08-18T17:08:14;4.55;;;3.25;;
62977;SDS011;49073;42.352;23.808;2022-08-18T17:11:16;4.20;;;3.47;;
62977;SDS011;49073;42.352;23.808;2022-08-18T17:14:22;5.88;;;3.42;;
62977;SDS011;49073;42.352;23.808;2022-08-18T17:17:25;4.20;;;3.10;;
62977;SDS011;49073;42.352;23.808;2022-08-18T17:20:25;6.90;;;3.47;;
62977;SDS011;49073;42.352;23.808;2022-08-18T17:23:26;3.60;;;3.08;;
62977;SDS011;49073;42.352;23.808;2022-08-18T17:32:55;6.28;;;3.72;;
62977;SDS011;49073;42.352;23.808;2022-08-18T17:40:14;6.47;;;3.60;;
62977;SDS011;49073;42.352;23.808;2022-08-18T17:43:25;4.90;;;3.33;;
62977;SDS011;49073;42.352;23.808;2022-08-18T17:46:32;7.70;;;3.20;;
62977;SDS011;49073;42.352;23.808;2022-08-18T17:49:41;5.10;;;3.10;;
62977;SDS011;49073;42.352;23.808;2022-08-18T17:53:03;4.93;;;2.97;;
62977;SDS011;49073;42.352;23.808;2022-08-18T17:59:07;4.45;;;2.53;;
62977;SDS011;49073;42.352;23.808;2022-08-18T18:05:19;2.88;;;2.53;;
62977;SDS011;49073;42.352;23.808;2022-08-18T18:08:45;4.03;;;2.80;;
62977;SDS011;49073;42.352;23.808;2022-08-18T18:11:46;3.78;;;2.60;;
62977;SDS011;49073;42.352;23.808;2022-08-18T18:14:47;5.00;;;2.97;;
62977;SDS011;49073;42.352;23.808;2022-08-18T18:17:48;4.13;;;3.05;;
62977;SDS011;49073;42.352;23.808;2022-08-18T18:20:56;7.75;;;2.42;;
62977;SDS011;49073;42.352;23.808;2022-08-18T18:27:22;4.03;;;2.70;;
62977;SDS011;49073;42.352;23.808;2022-08-18T18:30:29;4.32;;;3.13;;
62977;SDS011;49073;42.352;23.808;2022-08-18T18:33:33;4.22;;;2.67;;
62977;SDS011;49073;42.352;23.808;2022-08-18T18:36:43;5.53;;;3.08;;
62977;SDS011;49073;42.352;23.808;2022-08-18T18:39:45;5.97;;;2.83;;
62977;SDS011;49073;42.352;23.808;2022-08-18T18:42:55;3.90;;;2.95;;
62977;SDS011;49073;42.352;23.808;2022-08-18T18:49:24;9.18;;;3.05;;
62977;SDS011;49073;42.352;23.808;2022-08-18T18:52:42;4.93;;;3.22;;
62977;SDS011;49073;42.352;23.808;2022-08-18T18:55:56;3.67;;;2.95;;
62977;SDS011;49073;42.352;23.808;2022-08-18T18:59:11;5.13;;;3.50;;
62977;SDS011;49073;42.352;23.808;2022-08-18T19:02:17;4.22;;;3.28;;
62977;SDS011;49073;42.352;23.808;2022-08-18T19:05:33;4.85;;;3.15;;
62977;SDS011;49073;42.352;23.808;2022-08-18T19:09:13;5.97;;;3.83;;
62977;SDS011;49073;42.352;23.808;2022-08-18T19:12:32;6.65;;;3.78;;
62977;SDS011;49073;42.352;23.808;2022-08-18T19:15:42;5.50;;;3.55;;
62977;SDS011;49073;42.352;23.808;2022-08-18T19:18:47;5.88;;;3.60;;
62977;SDS011;49073;42.352;23.808;2022-08-18T19:22:07;6.93;;;3.80;;
62977;SDS011;49073;42.352;23.808;2022-08-18T19:28:35;5.13;;;3.90;;
62977;SDS011;49073;42.352;23.808;2022-08-18T19:31:53;4.13;;;3.70;;
62977;SDS011;49073;42.352;23.808;2022-08-18T19:35:00;4.72;;;3.95;;
62977;SDS011;49073;42.352;23.808;2022-08-18T19:41:08;9.60;;;3.85;;
62977;SDS011;49073;42.352;23.808;2022-08-18T19:44:26;5.13;;;3.70;;
62977;SDS011;49073;42.352;23.808;2022-08-18T19:51:31;5.45;;;4.20;;
62977;SDS011;49073;42.352;23.808;2022-08-18T20:01:33;11.88;;;4.32;;
62977;SDS011;49073;42.352;23.808;2022-08-18T20:05:02;9.07;;;4.53;;
62977;SDS011;49073;42.352;23.808;2022-08-18T20:15:05;6.22;;;4.05;;
62977;SDS011;49073;42.352;23.808;2022-08-18T20:18:19;5.37;;;4.23;;
62977;SDS011;49073;42.352;23.808;2022-08-18T20:21:29;5.28;;;4.25;;
62977;SDS011;49073;42.352;23.808;2022-08-18T20:31:04;5.82;;;4.25;;
62977;SDS011;49073;42.352;23.808;2022-08-18T20:34:12;6.18;;;4.43;;
62977;SDS011;49073;42.352;23.808;2022-08-18T20:37:18;5.00;;;4.00;;
62977;SDS011;49073;42.352;23.808;2022-08-18T20:40:40;5.43;;;4.05;;
62977;SDS011;49073;42.352;23.808;2022-08-18T20:43:43;9.20;;;4.07;;
62977;SDS011;49073;42.352;23.808;2022-08-18T20:53:41;4.40;;;3.83;;
62977;SDS011;49073;42.352;23.808;2022-08-18T20:56:52;5.85;;;4.13;;
62977;SDS011;49073;42.352;23.808;2022-08-18T21:00:08;4.75;;;4.25;;
62977;SDS011;49073;42.352;23.808;2022-08-18T21:03:15;4.57;;;4.07;;
62977;SDS011;49073;42.352;23.808;2022-08-18T21:06:19;6.70;;;4.28;;
62977;SDS011;49073;42.352;23.808;2022-08-18T21:09:26;5.60;;;4.30;;
62977;SDS011;49073;42.352;23.808;2022-08-18T21:12:28;4.75;;;4.20;;
62977;SDS011;49073;42.352;23.808;2022-08-18T21:15:34;6.88;;;4.10;;
62977;SDS011;49073;42.352;23.808;2022-08-18T21:18:36;6.00;;;4.40;;
62977;SDS011;49073;42.352;23.808;2022-08-18T21:21:42;5.47;;;3.97;;
62977;SDS011;49073;42.352;23.808;2022-08-18T21:24:46;4.57;;;4.00;;
62977;SDS011;49073;42.352;23.808;2022-08-18T21:27:49;5.53;;;4.38;;
62977;SDS011;49073;42.352;23.808;2022-08-18T21:31:00;4.97;;;4.40;;
62977;SDS011;49073;42.352;23.808;2022-08-18T21:34:05;4.93;;;4.43;;
62977;SDS011;49073;42.352;23.808;2022-08-18T21:37:09;4.95;;;4.07;;
62977;SDS011;49073;42.352;23.808;2022-08-18T21:40:11;5.07;;;4.30;;
62977;SDS011;49073;42.352;23.808;2022-08-18T21:43:14;4.75;;;4.25;;
62977;SDS011;49073;42.352;23.808;2022-08-18T21:46:34;4.53;;;4.10;;
62977;SDS011;49073;42.352;23.808;2022-08-18T21:49:35;4.90;;;4.15;;
62977;SDS011;49073;42.352;23.808;2022-08-18T21:52:37;6.28;;;4.65;;
62977;SDS011;49073;42.352;23.808;2022-08-18T21:55:41;6.90;;;4.30;;
62977;SDS011;49073;42.352;23.808;2022-08-18T21:58:42;6.35;;;4.30;;
62977;SDS011;49073;42.352;23.808;2022-08-18T22:01:50;4.75;;;4.25;;
62977;SDS011;49073;42.352;23.808;2022-08-18T22:04:52;6.22;;;4.22;;
62977;SDS011;49073;42.352;23.808;2022-08-18T22:07:53;4.88;;;4.00;;
62977;SDS011;49073;42.352;23.808;2022-08-18T22:11:07;5.63;;;3.67;;
62977;SDS011;49073;42.352;23.808;2022-08-18T22:14:42;7.25;;;4.03;;
62977;SDS011;49073;42.352;23.808;2022-08-18T22:17:50;4.57;;;4.07;;
62977;SDS011;49073;42.352;23.808;2022-08-18T22:20:54;9.73;;;4.18;;
62977;SDS011;49073;42.352;23.808;2022-08-18T22:23:56;5.57;;;4.80;;
62977;SDS011;49073;42.352;23.808;2022-08-18T22:27:17;4.85;;;4.35;;
62977;SDS011;49073;42.352;23.808;2022-08-18T22:30:19;6.18;;;4.22;;
62977;SDS011;49073;42.352;23.808;2022-08-18T22:33:20;4.85;;;4.18;;
62977;SDS011;49073;42.352;23.808;2022-08-18T22:36:25;6.93;;;4.60;;
62977;SDS011;49073;42.352;23.808;2022-08-18T22:39:33;5.07;;;4.32;;
62977;SDS011;49073;42.352;23.808;2022-08-18T22:42:54;4.88;;;4.25;;
62977;SDS011;49073;42.352;23.808;2022-08-18T22:45:55;4.63;;;4.05;;
62977;SDS011;49073;42.352;23.808;2022-08-18T22:48:56;4.97;;;4.25;;
62977;SDS011;49073;42.352;23.808;2022-08-18T22:51:57;4.95;;;4.15;;
62977;SDS011;49073;42.352;23.808;2022-08-18T22:54:58;4.18;;;3.78;;
62977;SDS011;49073;42.352;23.808;2022-08-18T22:58:00;4.65;;;3.90;;
62977;SDS011;49073;42.352;23.808;2022-08-18T23:01:01;6.88;;;4.22;;
62977;SDS011;49073;42.352;23.808;2022-08-18T23:04:03;4.70;;;4.22;;
62977;SDS011;49073;42.352;23.808;2022-08-18T23:07:05;6.30;;;4.10;;
62977;SDS011;49073;42.352;23.808;2022-08-18T23:10:06;5.38;;;4.07;;
62977;SDS011;49073;42.352;23.808;2022-08-18T23:13:07;5.03;;;4.40;;
62977;SDS011;49073;42.352;23.808;2022-08-18T23:16:07;4.93;;;4.40;;
62977;SDS011;49073;42.352;23.808;2022-08-18T23:19:08;5.82;;;4.47;;